Flight Track Log - Related Links

Times and Time Zones

All times are in EDT time to prevent confusion due to time zone crossing. See the WIG7306 flight status page for this flight to view local times or setup timezone preferences in your user account.

Time Position Orientation Groundspeed Altitude Reporting Facility
EDT Latitude Longitude Course Direction KTS MPH feet Rate Location/Type
Thu 10:12:34 PM 42.7422 -73.8083 206° Southwest 67 77 1,000  Level Boston Center
Thu 10:13:29 PM 42.7214 -73.8136 191° South 93 107 1,800 931 Climbing Boston Center
Thu 10:14:30 PM 42.6983 -73.8272 203° Southwest 103 119 2,800 992 Climbing Boston Center
Thu 10:15:30 PM 42.6731 -73.8492 213° Southwest 111 128 3,800 1,009 Climbing Boston Center
Thu 10:16:23 PM 42.6478 -73.8683 209° Southwest 117 135 4,700 1,050 Climbing Boston Center
Thu 10:17:30 PM 42.6119 -73.8958 209° Southwest 120 138 5,900 927 Climbing Boston Center
Thu 10:18:00 PM 42.5156 -73.8448 206° Southwest  Level Estimated
Thu 10:18:26 PM 42.5889 -73.9150 211° Southwest 122 140 6,600  Level Boston Center
Thu 10:19:26 PM 42.5553 -73.9394 208° Southwest 124 143 7,700 700 Climbing Boston Center
Thu 10:20:26 PM 42.5214 -73.9642 208° Southwest 134 154 8,000 149 Climbing Boston Center
Thu 10:21:27 PM 42.4836 -73.9969 213° Southwest 184 212 8,000 49 Level Boston Center
Thu 10:22:28 PM 42.4414 -74.0297 210° Southwest 177 204 8,100  Climbing Boston Center
Thu 10:23:28 PM 42.3992 -74.0594 207° Southwest 170 196 8,000 -50 Descending Boston Center
Thu 10:24:28 PM 42.3569 -74.0950 212° Southwest 171 197 8,000  Level Boston Center
Thu 10:25:41 PM 42.3108 -74.1275 208° Southwest 174 200 8,000  Level Boston Center
Thu 10:26:42 PM 42.2644 -74.1597 207° Southwest 174 200 8,000  Level Boston Center
Thu 10:27:41 PM 42.2286 -74.1869 209° Southwest 174 200 8,000  Level Boston Center
Thu 10:28:42 PM 42.1842 -74.2222 210° Southwest 168 193 8,000  Level Boston Center
Thu 10:29:42 PM 42.1464 -74.2489 208° Southwest 168 193 8,000  Level Boston Center
Thu 10:30:42 PM 42.1000 -74.2814 207° Southwest 168 193 8,000  Level Boston Center
Thu 10:31:39 PM 42.0619 -74.3081 207° Southwest 168 193 8,000  Level Boston Center
Thu 10:32:40 PM 42.0156 -74.3431 209° Southwest 175 201 8,000  Level Boston Center
Thu 10:33:42 PM 41.9778 -74.3586 197° South 175 201 8,000  Level Boston Center
Thu 10:34:41 PM 41.9272 -74.3822 199° South 175 201 8,000  Level Boston Center
Thu 10:35:40 PM 41.8875 -74.4006 199° South 175 201 8,000  Level Boston Center
Thu 10:36:40 PM 41.8350 -74.4211 196° South 175 201 8,000  Level Boston Center
Thu 10:37:41 PM 41.7931 -74.4367 195° South 175 201 8,000  Level Boston Center
Thu 10:38:40 PM 41.7447 -74.4575 198° South 170 196 8,000  Level Boston Center
Thu 10:39:41 PM 41.7028 -74.4756 198° South 170 196 8,000  Level Boston Center
Thu 10:40:42 PM 41.6522 -74.4961 197° South 170 196 8,000  Level Boston Center
Thu 10:41:39 PM 41.6103 -74.5114 195° South 170 196 8,000 -403 Level Boston Center
Thu 10:42:41 PM 41.5556 -74.5375 200° South 180 207 7,200 -689 Descending Boston Center
Thu 10:43:41 PM 41.5117 -74.5525 194° South 190 219 6,600 -595 Descending Boston Center
Thu 10:44:42 PM 41.4569 -74.5728 196° South 185 213 6,000 -303 Descending Boston Center
Thu 10:45:40 PM 41.4192 -74.5883 197° South 185 213 6,000  Level Boston Center
Thu 10:46:42 PM 41.3689 -74.6058 195° South 171 197 6,000  Level Boston Center
Thu 10:47:18 PM 41.3333 -74.6167 193° South 166 191 6,000  Level New TRACON
Thu 10:48:24 PM 41.2833 -74.6333 194° South 165 190 6,000 -95 Level New TRACON
Thu 10:49:24 PM 41.2500 -74.6333 180° South 166 191 5,800 -550 Descending New TRACON
Thu 10:50:24 PM 41.2167 -74.6000 143° Southeast 189 217 4,900 -947 Descending New TRACON
Thu 10:51:18 PM 41.1833 -74.5500 132° Southeast 187 215 4,000 -450 Descending New TRACON
Thu 10:52:24 PM 41.1500 -74.5000 132° Southeast 160 184 4,000  Level New TRACON
Thu 10:53:18 PM 41.1167 -74.4500 131° Southeast 159 183 4,000 -496 Level New TRACON
Thu 10:54:25 PM 41.0667 -74.4500 180° South 177 204 3,000 -476 Descending New TRACON
Thu 10:55:24 PM 41.0333 -74.4667 201° Southwest 159 183 3,000  Level New TRACON
Thu 10:56:24 PM 40.9833 -74.4667 180° South 152 175 3,000  Level New TRACON
Thu 10:57:30 PM 40.9500 -74.4667 180° South 156 180 3,000  Level New TRACON
Thu 10:58:30 PM 40.9000 -74.4667 180° South 157 181 3,000  Level New TRACON
Thu 10:59:36 PM 40.8500 -74.4500 166° South 155 178 3,000  Level New TRACON
Thu 11:00:36 PM 40.8167 -74.4167 143° Southeast 158 182 3,000 -263 Level New TRACON
Thu 11:01:30 PM 40.7667 -74.4000 166° South 170 196 2,500 -526 Descending New TRACON
Thu 11:02:30 PM 40.7333 -74.3833 159° South 156 180 2,000 -263 Descending New TRACON
Thu 11:03:24 PM 40.7167 -74.3500 123° Southeast 153 176 2,000 -150 Level New TRACON
Thu 11:04:30 PM 40.7167 -74.3000 90° East 150 173 1,700 -429 Descending New TRACON
Thu 11:05:30 PM 40.7000 -74.2500 114° Southeast 110 127 1,100 -600 Descending New TRACON
Thu 11:06:30 PM 40.7000 -74.2000 90° East 110 127 500 -600 Descending New TRACON

Login

Don't have an account? Register now (free) for customized features, flight alerts, and more!